createdAt,value
2018-09-30T00:00:40.271Z,5.30
2018-09-30T00:03:08.343Z,6.13
2018-09-30T00:05:36.441Z,6.90
2018-09-30T00:08:04.503Z,6.77
2018-09-30T00:10:32.610Z,7.47
2018-09-30T00:13:00.684Z,6.00
2018-09-30T00:15:29.069Z,6.40
2018-09-30T00:17:57.133Z,6.33
2018-09-30T00:20:25.203Z,6.20
2018-09-30T00:22:53.510Z,5.40
2018-09-30T00:25:26.909Z,6.37
2018-09-30T00:27:54.988Z,5.90
2018-09-30T00:30:23.056Z,5.97
2018-09-30T00:32:51.167Z,5.13
2018-09-30T00:35:19.214Z,4.77
2018-09-30T00:37:47.295Z,4.80
2018-09-30T00:40:15.359Z,5.40
2018-09-30T00:42:43.419Z,5.60
2018-09-30T00:45:11.483Z,4.70
2018-09-30T00:47:39.564Z,5.67
2018-09-30T00:50:07.802Z,5.60
2018-09-30T00:52:35.986Z,5.20
2018-09-30T00:55:04.308Z,5.03
2018-09-30T00:57:32.418Z,5.10
2018-09-30T01:00:00.489Z,4.93
2018-09-30T01:02:28.867Z,4.10
2018-09-30T01:04:56.937Z,4.27
2018-09-30T01:07:25.055Z,4.90
2018-09-30T01:09:53.159Z,4.57
2018-09-30T01:12:21.223Z,4.93
2018-09-30T01:14:49.299Z,4.67
2018-09-30T01:17:17.370Z,4.40
2018-09-30T01:19:45.446Z,4.63
2018-09-30T01:22:14.283Z,4.60
2018-09-30T01:24:42.350Z,4.20
2018-09-30T01:27:10.457Z,4.17
2018-09-30T01:29:38.518Z,4.00
2018-09-30T01:32:06.610Z,4.80
2018-09-30T01:34:34.720Z,4.70
2018-09-30T01:37:02.811Z,4.33
2018-09-30T01:39:30.953Z,4.00
2018-09-30T01:41:59.030Z,4.20
2018-09-30T01:44:27.152Z,4.57
2018-09-30T01:46:55.194Z,3.97
2018-09-30T01:49:23.718Z,4.00
2018-09-30T01:52:03.169Z,3.80
2018-09-30T01:54:31.231Z,3.57
2018-09-30T01:56:59.295Z,3.17
2018-09-30T01:59:27.381Z,5.30
2018-09-30T02:01:55.471Z,3.57
2018-09-30T02:04:23.545Z,4.00
2018-09-30T02:06:51.802Z,4.93
2018-09-30T02:09:19.863Z,3.60
2018-09-30T02:11:47.970Z,3.87
2018-09-30T02:14:16.019Z,4.10
2018-09-30T02:16:44.203Z,4.23
2018-09-30T02:19:12.281Z,3.53
2018-09-30T02:21:40.348Z,3.60
2018-09-30T02:24:08.611Z,3.17
2018-09-30T02:26:36.686Z,3.57
2018-09-30T02:29:04.783Z,4.10
2018-09-30T02:31:32.865Z,3.10
2018-09-30T02:34:00.932Z,3.30
2018-09-30T02:36:29.231Z,3.57
2018-09-30T02:38:57.299Z,3.37
2018-09-30T02:41:25.394Z,3.70
2018-09-30T02:43:53.458Z,4.20
2018-09-30T02:46:21.525Z,4.03
2018-09-30T02:48:49.632Z,2.93
2018-09-30T02:51:17.723Z,3.67
2018-09-30T02:53:45.814Z,3.40
2018-09-30T02:56:13.897Z,3.80
2018-09-30T02:58:41.992Z,3.00
2018-09-30T03:01:10.049Z,3.37
2018-09-30T03:03:38.122Z,4.20
2018-09-30T03:06:10.690Z,3.87
2018-09-30T03:08:44.121Z,3.07
2018-09-30T03:11:12.411Z,4.20
2018-09-30T03:13:40.502Z,3.80
2018-09-30T03:16:08.562Z,3.50
2018-09-30T03:18:36.690Z,3.90
2018-09-30T03:21:04.982Z,4.30
2018-09-30T03:23:33.087Z,3.30
2018-09-30T03:26:01.160Z,3.80
2018-09-30T03:28:29.223Z,3.00
2018-09-30T03:30:57.991Z,3.40
2018-09-30T03:33:26.066Z,3.10
2018-09-30T03:35:54.149Z,3.53
2018-09-30T03:38:22.395Z,3.27
2018-09-30T03:40:50.458Z,3.10
2018-09-30T03:43:18.517Z,3.17
2018-09-30T03:45:46.587Z,3.53
2018-09-30T03:48:14.633Z,3.30
2018-09-30T03:50:42.694Z,3.63
2018-09-30T03:53:10.749Z,3.67
2018-09-30T03:55:38.826Z,3.50
2018-09-30T03:58:07.088Z,3.30
2018-09-30T04:00:35.163Z,4.60
2018-09-30T04:03:03.219Z,3.40
2018-09-30T04:05:31.283Z,4.13
2018-09-30T04:07:59.853Z,3.43
2018-09-30T04:10:27.939Z,3.13
2018-09-30T04:12:56.108Z,3.03
2018-09-30T04:15:24.186Z,3.17
2018-09-30T04:17:52.251Z,3.40
2018-09-30T04:20:20.342Z,3.10
2018-09-30T04:22:48.420Z,4.00
2018-09-30T04:25:16.481Z,3.03
2018-09-30T04:27:44.540Z,2.70
2018-09-30T04:30:12.602Z,2.70
2018-09-30T04:32:40.696Z,2.70
2018-09-30T04:35:08.927Z,3.30
2018-09-30T04:37:36.993Z,2.93
2018-09-30T04:40:05.158Z,3.20
2018-09-30T04:42:33.223Z,3.30
2018-09-30T04:45:01.334Z,3.70
2018-09-30T04:47:29.406Z,3.53
2018-09-30T04:49:57.766Z,2.37
2018-09-30T04:52:25.799Z,3.10
2018-09-30T04:54:53.869Z,3.10
2018-09-30T04:57:22.323Z,3.20
2018-09-30T04:59:50.393Z,2.83
2018-09-30T05:02:18.465Z,3.03
2018-09-30T05:04:46.534Z,2.90
2018-09-30T05:07:14.669Z,2.27
2018-09-30T05:09:42.750Z,2.93
2018-09-30T05:12:10.851Z,3.70
2018-09-30T05:14:39.032Z,2.97
2018-09-30T05:17:07.144Z,3.20
2018-09-30T05:19:35.250Z,3.30
2018-09-30T05:22:03.342Z,3.40
2018-09-30T05:24:31.423Z,2.87
2018-09-30T05:26:59.501Z,3.40
2018-09-30T05:29:27.563Z,3.60
2018-09-30T05:31:56.724Z,3.90
2018-09-30T05:34:24.793Z,3.80
2018-09-30T05:36:52.877Z,3.40
2018-09-30T05:39:20.935Z,3.67
2018-09-30T05:41:48.991Z,4.47
2018-09-30T05:44:17.055Z,4.10
2018-09-30T05:46:45.117Z,2.50
2018-09-30T05:49:13.188Z,3.87
2018-09-30T05:51:41.275Z,3.30
2018-09-30T05:54:09.322Z,3.80
2018-09-30T05:56:39.085Z,3.43
2018-09-30T05:59:07.163Z,3.70
2018-09-30T06:01:35.242Z,4.43
2018-09-30T06:04:03.385Z,4.20
2018-09-30T06:06:32.026Z,3.63
2018-09-30T06:09:00.125Z,3.60
2018-09-30T06:11:28.170Z,3.70
2018-09-30T06:13:56.275Z,4.10
2018-09-30T06:16:24.323Z,3.20
2018-09-30T06:18:52.385Z,3.50
2018-09-30T06:21:20.458Z,3.87
2018-09-30T06:23:48.522Z,3.70
2018-09-30T06:26:16.607Z,3.73
2018-09-30T06:28:44.727Z,3.87
2018-09-30T06:31:12.803Z,3.60
2018-09-30T06:33:40.866Z,3.50
2018-09-30T06:36:08.929Z,3.93
2018-09-30T06:38:37.263Z,3.80
2018-09-30T06:41:05.343Z,2.80
2018-09-30T06:43:33.399Z,3.60
2018-09-30T06:46:01.478Z,3.50
2018-09-30T06:48:29.543Z,3.60
2018-09-30T06:50:57.671Z,3.50
2018-09-30T06:53:25.687Z,3.40
2018-09-30T06:55:53.769Z,3.97
2018-09-30T06:58:22.403Z,4.33
2018-09-30T07:00:50.469Z,4.33
2018-09-30T07:03:18.757Z,3.03
2018-09-30T07:05:46.802Z,3.53
2018-09-30T07:08:15.974Z,4.13
2018-09-30T07:10:44.172Z,3.50
2018-09-30T07:13:12.264Z,8.43
2018-09-30T07:15:40.378Z,6.30
2018-09-30T07:18:08.448Z,3.57
2018-09-30T07:20:36.524Z,6.20
2018-09-30T07:23:04.598Z,4.20
2018-09-30T07:25:32.657Z,6.63
2018-09-30T07:28:00.720Z,5.13
2018-09-30T07:30:28.782Z,4.30
2018-09-30T07:32:56.864Z,3.60
2018-09-30T07:35:24.968Z,3.30
2018-09-30T07:37:53.069Z,3.00
2018-09-30T07:40:21.159Z,3.40
2018-09-30T07:42:49.229Z,4.83
2018-09-30T07:45:17.308Z,4.07
2018-09-30T07:47:45.394Z,4.50
2018-09-30T07:50:13.522Z,4.27
2018-09-30T07:52:41.919Z,3.47
2018-09-30T07:55:10.186Z,4.73
2018-09-30T07:57:38.295Z,3.30
2018-09-30T08:00:06.910Z,4.30
2018-09-30T08:02:35.004Z,4.10
2018-09-30T08:05:03.117Z,5.30
2018-09-30T08:07:31.192Z,3.87
2018-09-30T08:09:59.537Z,3.60
2018-09-30T08:12:27.634Z,4.77
2018-09-30T08:14:55.740Z,3.73
2018-09-30T08:17:24.230Z,5.17
2018-09-30T08:19:52.334Z,3.70
2018-09-30T08:22:20.428Z,4.07
2018-09-30T08:24:48.564Z,3.70
2018-09-30T08:27:16.855Z,3.37
2018-09-30T08:29:44.927Z,4.43
2018-09-30T08:32:13.030Z,5.17
2018-09-30T08:34:41.114Z,3.67
2018-09-30T08:37:09.208Z,2.87
2018-09-30T08:39:37.556Z,2.50
2018-09-30T08:42:05.661Z,2.73
2018-09-30T08:44:33.796Z,3.03
2018-09-30T08:47:01.917Z,2.60
2018-09-30T08:49:30.019Z,2.30
2018-09-30T08:51:58.147Z,2.67
2018-09-30T08:54:26.284Z,3.20
2018-09-30T08:56:54.359Z,2.97
2018-09-30T08:59:22.519Z,2.80
2018-09-30T09:01:50.610Z,5.13
2018-09-30T09:04:18.676Z,1.93
2018-09-30T09:06:46.751Z,2.70
2018-09-30T09:09:14.831Z,2.40
2018-09-30T09:11:42.906Z,2.47
2018-09-30T09:14:10.990Z,2.63
2018-09-30T09:16:39.062Z,2.70
2018-09-30T09:19:07.155Z,2.53
2018-09-30T09:21:35.338Z,2.40
2018-09-30T09:24:03.470Z,2.67
2018-09-30T09:26:31.530Z,2.00
2018-09-30T09:28:59.631Z,2.57
2018-09-30T09:31:27.723Z,1.50
2018-09-30T09:33:55.844Z,3.73
2018-09-30T09:36:23.919Z,3.93
2018-09-30T09:38:51.995Z,2.90
2018-09-30T09:41:20.078Z,2.40
2018-09-30T09:43:48.284Z,2.53
2018-09-30T09:46:16.355Z,2.90
2018-09-30T09:48:44.422Z,2.53
2018-09-30T09:51:12.498Z,2.73
2018-09-30T09:53:40.579Z,2.80
2018-09-30T09:56:08.646Z,2.70
2018-09-30T09:58:36.744Z,3.30
2018-09-30T10:01:04.828Z,3.57
2018-09-30T10:03:32.948Z,3.20
2018-09-30T10:06:01.263Z,3.70
2018-09-30T10:08:29.375Z,3.50
2018-09-30T10:10:57.476Z,4.57
2018-09-30T10:13:25.578Z,4.50
2018-09-30T10:15:53.664Z,3.93
2018-09-30T10:18:22.905Z,3.87
2018-09-30T10:20:50.990Z,5.20
2018-09-30T10:23:19.084Z,4.10
2018-09-30T10:25:47.209Z,4.13
2018-09-30T10:28:15.338Z,3.60
2018-09-30T10:30:43.466Z,5.07
2018-09-30T10:33:11.578Z,3.10
2018-09-30T10:35:39.725Z,3.80
2018-09-30T10:38:07.885Z,3.77
2018-09-30T10:40:35.931Z,3.70
2018-09-30T10:43:04.224Z,3.63
2018-09-30T10:45:32.329Z,3.63
2018-09-30T10:48:00.416Z,3.20
2018-09-30T10:50:28.507Z,3.37
2018-09-30T10:52:56.590Z,3.00
2018-09-30T10:55:24.793Z,4.27
2018-09-30T10:57:52.861Z,4.10
2018-09-30T11:00:21.503Z,4.23
2018-09-30T11:02:49.598Z,3.23
2018-09-30T11:05:17.669Z,3.57
2018-09-30T11:07:45.738Z,3.30
2018-09-30T11:10:14.001Z,3.17
2018-09-30T11:12:42.010Z,2.73
2018-09-30T11:15:10.131Z,4.10
2018-09-30T11:17:38.226Z,3.53
2018-09-30T11:20:07.011Z,3.60
2018-09-30T11:22:35.199Z,3.10
2018-09-30T11:25:03.728Z,2.83
2018-09-30T11:27:31.957Z,3.90
2018-09-30T11:30:00.080Z,3.87
2018-09-30T11:32:28.171Z,3.20
2018-09-30T11:34:56.271Z,3.80
2018-09-30T11:37:24.444Z,3.30
2018-09-30T11:39:52.695Z,3.30
2018-09-30T11:42:20.808Z,3.67
2018-09-30T11:44:48.892Z,3.80
2018-09-30T11:47:16.978Z,3.30
2018-09-30T11:49:45.047Z,3.10
2018-09-30T11:52:13.126Z,2.87
2018-09-30T11:54:41.246Z,3.57
2018-09-30T11:57:09.317Z,2.73
2018-09-30T11:59:37.477Z,3.53
2018-09-30T12:02:05.862Z,3.23
2018-09-30T12:04:33.926Z,2.80
2018-09-30T12:07:02.303Z,3.90
2018-09-30T12:09:30.444Z,3.50
2018-09-30T12:11:58.540Z,3.27
2018-09-30T12:14:26.630Z,3.33
2018-09-30T12:16:54.719Z,3.57
2018-09-30T12:19:22.811Z,3.83
2018-09-30T12:21:51.025Z,3.53
2018-09-30T12:24:19.143Z,3.20
2018-09-30T12:26:47.219Z,3.50
2018-09-30T12:29:15.343Z,3.20
2018-09-30T12:31:43.447Z,2.90
2018-09-30T12:34:11.527Z,3.27
2018-09-30T12:36:39.607Z,2.70
2018-09-30T12:39:09.479Z,2.77
2018-09-30T12:41:37.766Z,3.20
2018-09-30T12:44:05.906Z,3.93
2018-09-30T12:46:33.979Z,3.10
2018-09-30T12:49:02.266Z,3.00
2018-09-30T12:51:30.359Z,2.90
2018-09-30T12:53:58.447Z,2.63
2018-09-30T12:56:26.613Z,3.30
2018-09-30T12:58:54.685Z,3.10
2018-09-30T13:01:23.278Z,3.50
2018-09-30T13:03:51.372Z,3.33
2018-09-30T13:06:19.430Z,4.13
2018-09-30T13:08:47.490Z,3.43
2018-09-30T13:11:15.750Z,3.40
2018-09-30T13:13:43.827Z,3.67
2018-09-30T13:16:11.923Z,3.03
2018-09-30T13:18:40.706Z,3.30
2018-09-30T13:21:09.052Z,3.70
2018-09-30T13:23:37.147Z,3.67
2018-09-30T13:26:05.213Z,3.93
2018-09-30T13:28:33.307Z,4.03
2018-09-30T13:31:01.404Z,3.90
2018-09-30T13:33:29.526Z,4.27
2018-09-30T13:35:57.598Z,3.73
2018-09-30T13:38:25.665Z,2.90
2018-09-30T13:40:53.925Z,2.97
2018-09-30T13:43:21.851Z,3.90
2018-09-30T13:45:49.947Z,3.10
2018-09-30T13:48:18.033Z,4.70
2018-09-30T13:50:46.123Z,4.80
2018-09-30T13:53:14.207Z,3.60
2018-09-30T13:55:42.861Z,3.67
2018-09-30T13:58:11.037Z,3.97
2018-09-30T14:00:39.119Z,3.57
2018-09-30T14:03:07.391Z,3.83
2018-09-30T14:05:35.492Z,3.70
2018-09-30T14:08:03.555Z,3.60
2018-09-30T14:10:31.650Z,3.47
2018-09-30T14:12:59.717Z,3.33
2018-09-30T14:15:27.782Z,3.73
2018-09-30T14:17:55.875Z,3.00
2018-09-30T14:20:23.943Z,4.53
2018-09-30T14:22:52.103Z,2.87
2018-09-30T14:25:20.183Z,3.10
2018-09-30T14:27:48.295Z,2.93
2018-09-30T14:30:16.377Z,2.70
2018-09-30T14:32:44.511Z,3.27
2018-09-30T14:35:12.574Z,3.00
2018-09-30T14:37:40.693Z,3.00
2018-09-30T14:40:09.235Z,3.27
2018-09-30T14:42:37.336Z,3.30
2018-09-30T14:45:05.612Z,3.37
2018-09-30T14:47:33.725Z,2.90
2018-09-30T14:50:01.866Z,3.80
2018-09-30T14:52:29.983Z,3.57
2018-09-30T14:54:58.130Z,3.53
2018-09-30T14:57:26.554Z,3.80
2018-09-30T14:59:54.628Z,3.90
2018-09-30T15:02:22.726Z,3.40
2018-09-30T15:04:50.799Z,2.97
2018-09-30T15:07:18.937Z,4.30
2018-09-30T15:09:47.034Z,3.20
2018-09-30T15:12:15.136Z,2.70
2018-09-30T15:14:44.123Z,2.70
2018-09-30T15:17:12.350Z,3.17
2018-09-30T15:19:40.434Z,3.43
2018-09-30T15:22:08.510Z,3.50
2018-09-30T15:24:36.593Z,2.73
2018-09-30T15:27:04.722Z,3.70
2018-09-30T15:29:32.953Z,3.30
2018-09-30T15:32:01.066Z,3.80
2018-09-30T15:34:29.162Z,3.47
2018-09-30T15:36:57.243Z,3.10
2018-09-30T15:39:25.322Z,2.57
2018-09-30T15:41:53.414Z,3.53
2018-09-30T15:44:21.767Z,2.67
2018-09-30T15:46:49.861Z,3.30
2018-09-30T15:49:18.539Z,4.50
2018-09-30T15:51:46.635Z,3.03
2018-09-30T15:54:14.708Z,2.90
2018-09-30T15:56:42.841Z,3.20
2018-09-30T15:59:10.930Z,3.40
2018-09-30T16:01:39.186Z,3.57
2018-09-30T16:04:07.282Z,3.40
2018-09-30T16:06:35.386Z,3.07
2018-09-30T16:09:03.718Z,2.87
2018-09-30T16:11:31.838Z,3.60
2018-09-30T16:14:01.384Z,3.30
2018-09-30T16:16:29.463Z,2.90
2018-09-30T16:18:57.609Z,3.33
2018-09-30T16:21:25.809Z,2.90
2018-09-30T16:23:53.894Z,2.70
2018-09-30T16:26:21.987Z,2.73
2018-09-30T16:28:50.092Z,3.70
2018-09-30T16:31:18.211Z,3.13
2018-09-30T16:33:46.337Z,3.23
2018-09-30T16:36:14.436Z,3.83
2018-09-30T16:38:42.526Z,3.00
2018-09-30T16:41:10.631Z,4.37
2018-09-30T16:43:38.750Z,2.80
2018-09-30T16:46:06.973Z,3.27
2018-09-30T16:48:35.052Z,3.13
2018-09-30T16:51:03.169Z,3.50
2018-09-30T16:53:31.250Z,3.27
2018-09-30T16:55:59.344Z,3.63
2018-09-30T16:58:27.425Z,4.03
2018-09-30T17:00:55.654Z,3.50
2018-09-30T17:03:24.028Z,3.07
2018-09-30T17:05:52.102Z,3.10
2018-09-30T17:08:20.190Z,3.50
2018-09-30T17:10:48.259Z,3.80
2018-09-30T17:13:16.419Z,15.40
2018-09-30T17:15:44.525Z,4.80
2018-09-30T17:18:12.635Z,4.17
2018-09-30T17:20:40.750Z,4.57
2018-09-30T17:23:08.839Z,3.97
2018-09-30T17:25:37.791Z,4.47
2018-09-30T17:28:05.893Z,4.23
2018-09-30T17:30:34.243Z,4.23
2018-09-30T17:33:02.335Z,4.97
2018-09-30T17:35:30.455Z,3.60
2018-09-30T17:37:58.660Z,5.53
2018-09-30T17:40:26.838Z,4.70
2018-09-30T17:42:55.005Z,4.93
2018-09-30T17:45:23.763Z,5.27
2018-09-30T17:47:51.860Z,5.50
2018-09-30T17:50:20.131Z,4.97
2018-09-30T17:52:48.268Z,5.50
2018-09-30T17:55:16.351Z,5.60
2018-09-30T17:57:44.431Z,4.83
2018-09-30T18:00:12.717Z,5.03
2018-09-30T18:02:40.859Z,5.40
2018-09-30T18:05:08.961Z,6.57
2018-09-30T18:07:37.044Z,6.40
2018-09-30T18:10:05.511Z,5.97
2018-09-30T18:12:33.603Z,6.00
2018-09-30T18:15:01.706Z,6.23
2018-09-30T18:17:29.799Z,6.30
2018-09-30T18:19:58.507Z,6.50
2018-09-30T18:22:26.807Z,5.60
2018-09-30T18:24:54.919Z,5.90
2018-09-30T18:27:22.982Z,5.17
2018-09-30T18:29:51.115Z,6.03
2018-09-30T18:32:19.222Z,5.50
2018-09-30T18:34:47.564Z,6.07
2018-09-30T18:37:15.677Z,5.60
2018-09-30T18:39:43.814Z,4.90
2018-09-30T18:42:11.991Z,6.63
2018-09-30T18:44:40.099Z,5.60
2018-09-30T18:47:08.242Z,5.50
2018-09-30T18:49:36.327Z,6.13
2018-09-30T18:52:04.405Z,6.50
2018-09-30T18:54:32.504Z,6.60
2018-09-30T18:57:00.616Z,6.63
2018-09-30T18:59:28.722Z,6.20
2018-09-30T19:01:56.794Z,6.17
2018-09-30T19:04:24.888Z,6.53
2018-09-30T19:06:53.035Z,7.10
2018-09-30T19:09:22.093Z,6.20
2018-09-30T19:11:50.182Z,6.17
2018-09-30T19:14:18.270Z,7.17
2018-09-30T19:16:46.374Z,7.17
2018-09-30T19:19:14.551Z,6.70
2018-09-30T19:21:42.579Z,6.17
2018-09-30T19:24:10.686Z,6.33
2018-09-30T19:26:38.800Z,5.87
2018-09-30T19:29:06.937Z,7.13
2018-09-30T19:31:35.110Z,5.83
2018-09-30T19:34:03.335Z,6.37
2018-09-30T19:36:31.414Z,6.37
2018-09-30T19:38:59.525Z,6.70
2018-09-30T19:41:27.612Z,5.93
2018-09-30T19:43:55.686Z,6.60
2018-09-30T19:46:23.770Z,5.90
2018-09-30T19:48:51.934Z,6.40
2018-09-30T19:51:20.158Z,6.37
2018-09-30T19:53:48.222Z,5.97
2018-09-30T19:56:16.318Z,7.10
2018-09-30T19:58:44.453Z,7.40
2018-09-30T20:01:12.565Z,7.53
2018-09-30T20:03:40.675Z,7.27
2018-09-30T20:06:08.936Z,7.63
2018-09-30T20:08:37.091Z,7.53
2018-09-30T20:11:05.179Z,7.40
2018-09-30T20:13:33.291Z,8.50
2018-09-30T20:16:03.054Z,7.90
2018-09-30T20:18:31.133Z,8.77
2018-09-30T20:20:59.528Z,9.07
2018-09-30T20:23:27.584Z,7.37
2018-09-30T20:25:55.695Z,6.93
2018-09-30T20:28:23.783Z,8.63
2018-09-30T20:30:52.131Z,8.23
2018-09-30T20:33:20.219Z,8.70
2018-09-30T20:35:48.327Z,13.17
2018-09-30T20:38:17.518Z,8.10
2018-09-30T20:40:46.095Z,12.20
2018-09-30T20:43:14.321Z,10.10
2018-09-30T20:45:42.388Z,9.63
2018-09-30T20:48:10.457Z,11.57
2018-09-30T20:50:38.535Z,9.17
2018-09-30T20:53:06.643Z,8.47
2018-09-30T20:55:35.058Z,9.30
2018-09-30T20:58:03.230Z,8.30
2018-09-30T21:00:32.532Z,10.80
2018-09-30T21:03:00.724Z,10.40
2018-09-30T21:06:39.423Z,7.50
2018-09-30T21:09:08.756Z,8.50
2018-09-30T21:11:36.899Z,7.83
2018-09-30T21:14:05.510Z,7.77
2018-09-30T21:16:33.794Z,8.17
2018-09-30T21:19:01.883Z,8.27
2018-09-30T21:21:29.982Z,8.43
2018-09-30T21:23:58.091Z,10.37
2018-09-30T21:26:26.203Z,7.07
2018-09-30T21:28:54.279Z,10.33
2018-09-30T21:31:22.412Z,7.90
2018-09-30T21:33:50.514Z,11.90
2018-09-30T21:36:18.633Z,9.33
2018-09-30T21:38:46.707Z,9.90
2018-09-30T21:41:14.869Z,8.90
2018-09-30T21:43:43.144Z,7.07
2018-09-30T21:46:11.226Z,7.03
2018-09-30T21:48:40.232Z,9.27
2018-09-30T21:51:08.300Z,18.83
2018-09-30T21:53:36.387Z,6.47
2018-09-30T21:56:04.477Z,13.97
2018-09-30T21:58:32.595Z,13.13
2018-09-30T22:01:01.899Z,9.33
2018-09-30T22:03:30.163Z,7.30
2018-09-30T22:05:58.374Z,10.30
2018-09-30T22:08:26.465Z,6.73
2018-09-30T22:10:55.302Z,10.73
2018-09-30T22:13:23.478Z,12.30
2018-09-30T22:15:52.348Z,8.47
2018-09-30T22:18:20.464Z,12.97
2018-09-30T22:20:48.540Z,15.20
2018-09-30T22:23:16.715Z,7.70
2018-09-30T22:25:44.810Z,9.83
2018-09-30T22:28:12.939Z,10.40
2018-09-30T22:30:41.003Z,8.60
2018-09-30T22:33:09.093Z,14.37
2018-09-30T22:35:37.180Z,10.43
2018-09-30T22:38:05.261Z,7.60
2018-09-30T22:40:33.328Z,11.10
2018-09-30T22:43:01.427Z,8.23
2018-09-30T22:45:29.515Z,9.30
2018-09-30T22:47:58.167Z,7.63
2018-09-30T22:50:26.333Z,7.27
2018-09-30T22:52:54.407Z,9.30
2018-09-30T22:55:22.618Z,7.03
2018-09-30T22:57:50.694Z,8.20
2018-09-30T23:00:18.798Z,9.10
2018-09-30T23:02:47.075Z,7.40
2018-09-30T23:05:15.131Z,9.00
2018-09-30T23:07:43.214Z,8.10
2018-09-30T23:10:12.607Z,8.00
2018-09-30T23:12:40.975Z,10.03
2018-09-30T23:15:09.425Z,8.17
2018-09-30T23:17:39.082Z,9.03
2018-09-30T23:20:13.580Z,7.30
2018-09-30T23:22:41.656Z,7.40
2018-09-30T23:25:09.726Z,8.30
2018-09-30T23:27:37.922Z,7.70
2018-09-30T23:30:06.305Z,7.60
2018-09-30T23:32:34.593Z,8.30
2018-09-30T23:35:02.794Z,6.67
2018-09-30T23:37:30.893Z,8.87
2018-09-30T23:39:59.055Z,9.53
2018-09-30T23:42:27.185Z,6.77
2018-09-30T23:44:55.339Z,7.20
2018-09-30T23:47:23.466Z,7.67
2018-09-30T23:49:51.546Z,7.77
2018-09-30T23:52:19.644Z,7.10
2018-09-30T23:54:47.930Z,7.00
2018-09-30T23:57:16.025Z,7.23
2018-09-30T23:59:44.092Z,6.60
